Time;durP1;ratioP1;P1;durP2;ratioP2;P2;SDS_P1;SDS_P2;PMS_P1;PMS_P2;Temp;Humidity;BMP_temperature;BMP_pressure;BME280_temperature;BME280_humidity;BME280_pressure;Samples;Min_cycle;Max_cycle;Signal;HPM_P1;HPM_P2
2022/09/16 00:01:13;;;;;;;2.30;1.30;;;19.50;57.80;;;;;;4934001;28;20560;-67
2022/09/16 00:03:42;;;;;;;1.73;0.90;;;19.50;57.90;;;;;;4944551;28;20958;-68
2022/09/16 00:06:19;;;;;;;2.90;1.10;;;19.50;57.90;;;;;;4949977;28;21007;-68
2022/09/16 00:08:49;;;;;;;1.30;1.10;;;19.50;57.80;;;;;;4944158;29;20521;-68
2022/09/16 00:11:18;;;;;;;2.03;1.00;;;19.50;57.80;;;;;;4932884;29;20523;-67
2022/09/16 00:13:47;;;;;;;1.53;1.00;;;19.50;57.80;;;;;;4927591;29;20432;-68
2022/09/16 00:16:18;;;;;;;1.47;0.90;;;19.50;57.80;;;;;;4933306;28;20476;-68
2022/09/16 00:18:47;;;;;;;2.20;0.93;;;19.50;57.80;;;;;;4940495;29;20542;-67
2022/09/16 00:21:16;;;;;;;1.63;0.83;;;19.50;57.80;;;;;;4930605;29;20488;-68
2022/09/16 00:23:44;;;;;;;1.93;1.10;;;19.50;57.80;;;;;;4920240;28;20435;-67
2022/09/16 00:26:14;;;;;;;2.00;1.20;;;19.50;57.90;;;;;;4933011;29;20483;-68
2022/09/16 00:28:43;;;;;;;3.20;1.10;;;19.50;57.80;;;;;;4955308;28;20439;-68
2022/09/16 00:31:11;;;;;;;1.80;0.73;;;19.50;57.90;;;;;;4934775;28;20858;-69
2022/09/16 00:33:40;;;;;;;2.10;1.10;;;19.50;57.80;;;;;;4933766;29;20839;-68
2022/09/16 00:36:11;;;;;;;1.27;0.70;;;19.50;57.80;;;;;;4935608;29;20483;-68
2022/09/16 00:38:40;;;;;;;1.40;1.00;;;19.50;57.80;;;;;;4931445;29;20955;-67
2022/09/16 00:41:12;;;;;;;2.80;1.67;;;19.50;57.80;;;;;;4928578;28;20480;-68
2022/09/16 00:43:54;;;;;;;1.20;0.90;;;19.50;57.90;;;;;;4948281;28;20447;-67
2022/09/16 00:46:29;;;;;;;2.70;1.07;;;19.50;57.80;;;;;;4949848;28;20471;-68
2022/09/16 00:48:58;;;;;;;2.53;1.07;;;19.40;57.80;;;;;;4928981;29;20808;-67
2022/09/16 00:51:27;;;;;;;1.33;1.20;;;19.50;57.90;;;;;;4938398;29;20463;-67
2022/09/16 00:54:02;;;;;;;1.60;1.03;;;19.50;57.90;;;;;;4928289;29;20455;-68
2022/09/16 00:56:36;;;;;;;2.43;1.10;;;19.40;57.70;;;;;;4937595;28;20481;-68
2022/09/16 00:59:07;;;;;;;2.30;0.87;;;;;;;;;;4939022;28;20430;-68
2022/09/16 01:01:36;;;;;;;1.13;0.87;;;19.50;56.80;;;;;;4938022;28;20490;-67
2022/09/16 01:04:10;;;;;;;1.53;1.00;;;19.40;57.70;;;;;;4934787;29;20439;-68
2022/09/16 01:06:39;;;;;;;2.30;0.80;;;19.40;57.70;;;;;;4930661;29;20920;-68
2022/09/16 01:09:07;;;;;;;1.13;0.87;;;19.40;57.70;;;;;;4930119;29;20447;-68
2022/09/16 01:11:36;;;;;;;1.87;1.10;;;19.40;57.60;;;;;;4931564;28;20486;-68
2022/09/16 01:16:59;;;;;;;2.80;1.20;;;19.40;57.70;;;;;;4933387;29;20570;-67
2022/09/16 01:19:43;;;;;;;2.17;0.93;;;19.40;57.70;;;;;;4928590;28;20447;-66
2022/09/16 01:22:27;;;;;;;1.97;0.90;;;19.40;57.70;;;;;;4936510;29;21240;-68
2022/09/16 01:25:03;;;;;;;2.10;0.87;;;19.40;57.70;;;;;;4944265;28;20841;-67
2022/09/16 01:28:14;;;;;;;1.60;1.20;;;19.40;57.60;;;;;;4916011;28;20558;-67
2022/09/16 01:31:08;;;;;;;2.17;1.17;;;19.40;57.70;;;;;;4929647;29;20477;-68
2022/09/16 01:33:46;;;;;;;1.37;0.93;;;19.40;57.60;;;;;;4945523;28;20550;-68
2022/09/16 01:36:30;;;;;;;1.17;0.63;;;19.40;57.80;;;;;;4927514;28;20476;-69
2022/09/16 01:39:13;;;;;;;1.87;0.70;;;19.40;57.70;;;;;;4932258;29;20487;-67
2022/09/16 01:41:56;;;;;;;1.90;1.10;;;19.40;57.70;;;;;;4939233;28;20475;-67
2022/09/16 01:44:31;;;;;;;1.10;0.73;;;19.40;57.70;;;;;;4917206;29;20829;-68
2022/09/16 01:47:05;;;;;;;2.63;1.03;;;19.40;57.80;;;;;;4948449;29;20451;-68
2022/09/16 01:49:44;;;;;;;2.23;1.20;;;19.40;57.70;;;;;;4930975;29;20460;-68
2022/09/16 01:52:21;;;;;;;2.17;1.00;;;19.40;57.70;;;;;;4945365;28;20554;-68
2022/09/16 01:54:56;;;;;;;1.53;0.80;;;19.40;57.80;;;;;;4934357;29;20459;-68
2022/09/16 01:57:29;;;;;;;2.53;0.90;;;19.30;57.60;;;;;;4935738;28;21011;-68
2022/09/16 02:00:01;;;;;;;1.70;0.83;;;19.40;57.80;;;;;;4938617;29;20506;-66
2022/09/16 02:02:37;;;;;;;1.73;0.90;;;19.40;57.70;;;;;;4951823;28;20805;-68
2022/09/16 02:05:11;;;;;;;1.40;0.73;;;19.30;57.60;;;;;;4935247;29;20521;-68
2022/09/16 02:07:45;;;;;;;1.73;1.53;;;19.30;57.60;;;;;;4934247;29;20448;-67
2022/09/16 02:10:20;;;;;;;5.10;1.27;;;19.30;57.50;;;;;;4939122;28;20474;-66
2022/09/16 02:12:52;;;;;;;1.70;1.30;;;19.30;57.50;;;;;;4951977;28;20443;-67
2022/09/16 02:15:24;;;;;;;3.53;1.50;;;19.30;57.50;;;;;;4938638;28;20550;-68
2022/09/16 02:17:58;;;;;;;1.00;0.90;;;19.30;57.40;;;;;;4937010;29;20491;-66
2022/09/16 02:20:30;;;;;;;1.60;1.27;;;19.30;57.50;;;;;;4933088;29;20920;-66
2022/09/16 02:23:02;;;;;;;1.80;0.80;;;19.30;57.60;;;;;;4937152;29;20433;-67
2022/09/16 02:25:35;;;;;;;1.47;1.13;;;19.30;57.60;;;;;;4923202;29;21076;-67
2022/09/16 02:28:11;;;;;;;1.83;1.30;;;19.30;57.60;;;;;;4929812;29;20475;-68
2022/09/16 02:30:43;;;;;;;1.80;0.90;;;19.30;57.50;;;;;;4933430;29;20507;-67
2022/09/16 02:33:37;;;;;;;0.90;0.53;;;19.30;57.50;;;;;;4936138;28;20439;-71
2022/09/16 02:36:08;;;;;;;1.03;0.80;;;19.30;57.50;;;;;;4891748;29;20525;-72
2022/09/16 02:38:41;;;;;;;1.70;0.80;;;19.30;57.50;;;;;;4889274;29;20434;-72
2022/09/16 02:41:13;;;;;;;1.00;0.70;;;19.30;57.50;;;;;;4867986;29;20534;-72
2022/09/16 02:43:42;;;;;;;2.33;1.60;;;19.30;57.60;;;;;;4870156;29;20985;-72
2022/09/16 02:46:19;;;;;;;1.43;0.80;;;19.30;57.60;;;;;;4876349;29;20474;-72
2022/09/16 02:48:57;;;;;;;1.00;0.90;;;19.30;57.60;;;;;;4871883;29;20533;-72
2022/09/16 02:51:33;;;;;;;1.47;0.80;;;19.30;57.60;;;;;;4873191;29;20585;-72
2022/09/16 02:54:09;;;;;;;2.03;1.03;;;19.20;57.50;;;;;;4874861;29;21004;-72
2022/09/16 02:56:40;;;;;;;1.53;0.80;;;19.30;57.50;;;;;;4869500;29;20488;-72
2022/09/16 02:59:12;;;;;;;0.90;0.77;;;19.30;57.50;;;;;;4878125;29;20454;-72
2022/09/16 03:01:43;;;;;;;1.67;1.23;;;19.30;57.50;;;;;;4868406;29;21077;-72
2022/09/16 03:04:15;;;;;;;1.47;1.00;;;19.30;57.50;;;;;;4875710;29;20478;-72
2022/09/16 03:06:44;;;;;;;2.10;0.93;;;19.20;57.40;;;;;;4891970;29;21076;-72
2022/09/16 03:09:14;;;;;;;1.27;0.90;;;19.20;57.30;;;;;;4870810;29;20560;-72
2022/09/16 03:12:12;;;;;;;1.70;0.80;;;19.30;57.50;;;;;;4870052;29;20589;-72
2022/09/16 03:15:01;;;;;;;1.00;0.90;;;19.30;57.50;;;;;;4875705;29;20907;-71
2022/09/16 03:17:42;;;;;;;1.97;1.10;;;19.30;57.50;;;;;;4888561;29;20837;-72
2022/09/16 03:20:19;;;;;;;1.60;0.87;;;19.20;57.30;;;;;;4856441;29;20477;-72
2022/09/16 03:22:54;;;;;;;1.90;0.87;;;19.20;57.40;;;;;;4896140;29;20453;-72
2022/09/16 03:25:39;;;;;;;1.30;1.10;;;19.30;57.50;;;;;;4890519;29;20850;-72
2022/09/16 03:28:12;;;;;;;2.23;1.20;;;19.20;57.30;;;;;;4888553;29;20447;-70
2022/09/16 03:30:47;;;;;;;2.13;0.80;;;19.20;57.40;;;;;;4861220;29;20565;-71
2022/09/16 03:33:22;;;;;;;1.63;0.80;;;19.30;57.40;;;;;;4876572;29;20457;-71
2022/09/16 03:35:57;;;;;;;0.80;0.80;;;19.20;57.30;;;;;;4867495;29;20574;-72
2022/09/16 03:38:27;;;;;;;1.00;0.90;;;19.20;57.40;;;;;;4880321;29;20861;-72
2022/09/16 03:40:56;;;;;;;1.93;1.00;;;19.20;57.30;;;;;;4858573;29;20578;-70
2022/09/16 03:43:24;;;;;;;1.37;0.83;;;19.20;57.30;;;;;;4881958;29;20545;-72
2022/09/16 03:45:53;;;;;;;3.00;0.97;;;19.20;57.30;;;;;;4871560;29;20477;-72
2022/09/16 03:48:21;;;;;;;4.07;1.73;;;19.20;57.30;;;;;;4877993;29;20465;-72
2022/09/16 03:50:49;;;;;;;4.83;1.07;;;19.20;57.20;;;;;;4884782;29;20499;-72
2022/09/16 03:53:19;;;;;;;1.90;0.83;;;19.20;57.20;;;;;;4889535;29;20451;-70
2022/09/16 03:55:49;;;;;;;1.83;1.23;;;19.20;57.20;;;;;;4869659;29;21000;-70
2022/09/16 03:58:17;;;;;;;0.90;0.70;;;19.20;57.10;;;;;;4890888;29;20494;-71
2022/09/16 04:00:50;;;;;;;1.47;0.80;;;19.20;57.20;;;;;;4885395;29;21023;-70
2022/09/16 04:03:19;;;;;;;1.83;0.87;;;19.10;57.10;;;;;;4875983;29;20450;-72
2022/09/16 04:05:53;;;;;;;2.70;0.90;;;19.20;57.30;;;;;;4880565;29;20506;-73
2022/09/16 04:08:23;;;;;;;1.13;1.03;;;19.20;57.20;;;;;;4876590;29;20738;-71
2022/09/16 04:10:55;;;;;;;1.10;0.90;;;19.20;57.20;;;;;;4868161;29;20479;-72
2022/09/16 04:13:24;;;;;;;3.63;1.17;;;19.10;56.90;;;;;;4886389;29;20541;-72
2022/09/16 04:15:52;;;;;;;1.17;1.03;;;19.10;56.80;;;;;;4893157;29;20470;-71
2022/09/16 04:18:21;;;;;;;1.60;0.97;;;19.10;56.90;;;;;;4883248;29;20480;-70
2022/09/16 04:20:49;;;;;;;1.37;0.80;;;19.10;57.10;;;;;;4877906;29;20985;-72
2022/09/16 04:23:18;;;;;;;1.33;0.83;;;19.10;57.00;;;;;;4867262;29;20443;-72
2022/09/16 04:25:54;;;;;;;3.10;0.90;;;19.10;57.10;;;;;;4883576;29;20581;-71
2022/09/16 04:28:23;;;;;;;1.60;0.97;;;19.10;56.90;;;;;;4878279;29;20868;-72
2022/09/16 04:30:51;;;;;;;1.50;1.10;;;19.10;57.00;;;;;;4878423;29;21107;-70
2022/09/16 04:33:20;;;;;;;1.60;0.80;;;19.10;58.00;;;;;;4892788;29;20450;-70
2022/09/16 04:35:48;;;;;;;1.70;1.00;;;19.10;57.00;;;;;;4869824;29;20478;-70
2022/09/16 04:38:16;;;;;;;2.73;1.30;;;19.10;57.00;;;;;;4898932;29;20561;-72
2022/09/16 04:40:45;;;;;;;1.77;1.00;;;19.10;56.90;;;;;;4877768;29;21031;-71
2022/09/16 04:43:15;;;;;;;1.70;0.70;;;19.10;57.00;;;;;;4872763;29;20451;-72
2022/09/16 04:45:43;;;;;;;1.33;0.80;;;19.10;57.00;;;;;;4888807;29;20465;-72
2022/09/16 04:48:11;;;;;;;2.10;0.97;;;19.10;56.80;;;;;;4877803;29;20553;-72
2022/09/16 04:50:41;;;;;;;1.63;0.90;;;19.10;56.90;;;;;;4895045;29;20512;-68
2022/09/16 04:53:10;;;;;;;2.13;0.83;;;19.10;56.80;;;;;;4881594;29;20734;-68
2022/09/16 04:55:38;;;;;;;3.87;1.30;;;19.10;56.80;;;;;;4872611;29;20522;-68
2022/09/16 04:58:07;;;;;;;2.83;0.80;;;19.10;56.50;;;;;;4889318;29;20573;-69
2022/09/16 05:00:36;;;;;;;1.10;1.00;;;19.00;56.80;;;;;;4881109;29;20473;-69
2022/09/16 05:03:05;;;;;;;1.57;0.90;;;19.10;56.90;;;;;;4874812;29;20438;-69
2022/09/16 05:05:33;;;;;;;1.70;1.00;;;19.00;56.60;;;;;;4871525;29;20466;-69
2022/09/16 05:08:02;;;;;;;1.33;0.70;;;19.00;56.60;;;;;;4867413;29;20537;-68
2022/09/16 05:10:30;;;;;;;4.30;1.67;;;19.00;56.60;;;;;;4881289;29;20526;-69
2022/09/16 05:12:59;;;;;;;1.97;1.13;;;19.00;56.60;;;;;;4871326;29;20449;-67
2022/09/16 05:15:27;;;;;;;1.97;1.40;;;19.00;56.60;;;;;;4880233;29;20573;-68
2022/09/16 05:17:57;;;;;;;1.20;1.00;;;19.00;56.80;;;;;;4873722;29;20505;-69
2022/09/16 05:20:26;;;;;;;3.40;1.57;;;19.00;56.70;;;;;;4859065;29;20481;-68
2022/09/16 05:22:54;;;;;;;2.17;0.90;;;19.00;56.80;;;;;;4885474;29;20479;-69
2022/09/16 05:25:22;;;;;;;1.90;0.80;;;19.00;56.60;;;;;;4882057;29;20474;-68
2022/09/16 05:27:51;;;;;;;3.50;1.03;;;19.00;56.60;;;;;;4891514;29;20473;-69
2022/09/16 05:30:19;;;;;;;2.50;1.20;;;19.00;56.60;;;;;;4878571;29;20486;-69
2022/09/16 05:32:54;;;;;;;1.33;1.00;;;19.00;56.30;;;;;;4876193;29;20460;-69
2022/09/16 05:35:23;;;;;;;1.00;0.90;;;18.90;56.50;;;;;;4877052;29;20481;-69
2022/09/16 05:37:52;;;;;;;1.63;1.00;;;18.90;56.40;;;;;;4875435;29;20553;-69
2022/09/16 05:40:21;;;;;;;2.10;1.17;;;18.90;56.60;;;;;;4875517;29;20521;-69
2022/09/16 05:42:50;;;;;;;2.13;1.17;;;19.00;56.60;;;;;;4877277;29;20442;-69
2022/09/16 05:45:18;;;;;;;2.00;0.80;;;18.90;56.60;;;;;;4875138;29;20925;-69
2022/09/16 05:47:53;;;;;;;2.10;0.83;;;18.90;56.40;;;;;;4882095;29;20469;-69
2022/09/16 05:50:23;;;;;;;2.40;1.10;;;18.90;56.40;;;;;;4876817;29;20923;-69
2022/09/16 05:52:51;;;;;;;2.40;1.20;;;18.90;56.40;;;;;;4888899;29;20482;-69
2022/09/16 05:55:20;;;;;;;0.97;0.70;;;18.90;56.40;;;;;;4876176;29;20897;-69
2022/09/16 05:57:48;;;;;;;2.13;1.20;;;18.90;56.50;;;;;;4882534;29;20549;-69
2022/09/16 06:00:17;;;;;;;1.60;0.53;;;18.90;56.50;;;;;;4887651;29;20976;-69
2022/09/16 06:02:47;;;;;;;1.43;0.83;;;18.90;56.50;;;;;;4884268;29;20438;-69
2022/09/16 06:05:15;;;;;;;2.00;1.13;;;18.90;56.40;;;;;;4874180;29;20832;-69
2022/09/16 06:07:45;;;;;;;2.50;1.43;;;18.90;56.50;;;;;;4873827;29;20533;-69
2022/09/16 06:10:13;;;;;;;1.73;0.90;;;18.90;56.30;;;;;;4885939;29;21031;-69
2022/09/16 06:12:42;;;;;;;2.60;1.00;;;18.90;56.40;;;;;;4887584;29;20482;-72
2022/09/16 06:15:11;;;;;;;4.43;1.40;;;18.90;56.60;;;;;;4884710;29;20436;-69
2022/09/16 06:17:39;;;;;;;1.20;0.90;;;18.80;56.20;;;;;;4876341;29;20210;-69
2022/09/16 06:20:12;;;;;;;4.93;1.23;;;18.80;55.80;;;;;;4885810;29;20613;-69
2022/09/16 06:22:41;;;;;;;7.47;1.83;;;18.80;55.70;;;;;;4891614;29;20465;-69
2022/09/16 06:25:11;;;;;;;3.03;1.10;;;18.80;55.90;;;;;;4867953;29;20478;-72
2022/09/16 06:27:39;;;;;;;4.53;1.37;;;18.80;55.50;;;;;;4870154;29;20442;-72
2022/09/16 06:30:08;;;;;;;2.87;1.40;;;18.80;54.60;;;;;;4872347;29;20454;-72
2022/09/16 06:32:37;;;;;;;4.27;2.10;;;18.90;53.80;;;;;;4874742;29;21033;-72
2022/09/16 06:35:06;;;;;;;6.97;2.37;;;18.80;54.00;;;;;;4873421;29;20469;-72
2022/09/16 06:37:35;;;;;;;10.87;1.90;;;18.80;54.30;;;;;;4874896;29;21189;-72
2022/09/16 06:40:03;;;;;;;6.03;1.53;;;18.70;54.40;;;;;;4881933;29;21087;-72
2022/09/16 06:42:33;;;;;;;5.63;1.90;;;18.60;55.10;;;;;;4875897;29;20466;-72
2022/09/16 06:45:04;;;;;;;5.07;2.20;;;18.60;55.10;;;;;;4874512;29;20552;-72
2022/09/16 06:47:32;;;;;;;7.73;1.90;;;18.60;55.20;;;;;;4882411;29;20873;-72
2022/09/16 06:50:01;;;;;;;8.30;1.83;;;18.60;55.40;;;;;;4872657;29;20482;-72
2022/09/16 06:52:29;;;;;;;4.77;1.80;;;18.60;55.50;;;;;;4889925;29;20446;-72
2022/09/16 06:54:58;;;;;;;8.47;1.60;;;18.60;55.40;;;;;;4882966;29;20970;-73
2022/09/16 06:57:26;;;;;;;7.57;1.30;;;18.60;55.50;;;;;;4872390;29;20482;-72
2022/09/16 06:59:56;;;;;;;4.50;1.50;;;18.60;55.40;;;;;;4870102;29;20554;-72
2022/09/16 07:02:24;;;;;;;6.23;1.67;;;18.60;55.40;;;;;;4862401;29;20526;-71
2022/09/16 07:04:52;;;;;;;5.70;1.83;;;18.60;55.50;;;;;;4875824;29;20982;-71
2022/09/16 07:07:21;;;;;;;3.70;1.23;;;18.60;55.50;;;;;;4874388;29;20446;-72
2022/09/16 07:09:49;;;;;;;5.80;1.70;;;18.60;55.50;;;;;;4876155;29;20446;-71
2022/09/16 07:12:18;;;;;;;4.53;2.10;;;18.60;55.60;;;;;;4877165;29;20462;-70
2022/09/16 07:14:47;;;;;;;3.63;1.40;;;18.60;55.40;;;;;;4882309;29;20509;-70
2022/09/16 07:17:16;;;;;;;1.70;1.10;;;18.60;55.60;;;;;;4882339;29;20443;-70
2022/09/16 07:19:45;;;;;;;5.07;1.83;;;18.60;55.60;;;;;;4873138;29;20478;-70
2022/09/16 07:22:13;;;;;;;4.50;1.33;;;18.60;55.50;;;;;;4887579;29;20473;-70
2022/09/16 07:24:41;;;;;;;3.80;1.20;;;18.60;55.60;;;;;;4883052;29;20453;-70
2022/09/16 07:27:10;;;;;;;4.80;1.40;;;18.60;55.60;;;;;;4895517;29;20588;-70
2022/09/16 07:29:38;;;;;;;1.83;1.10;;;18.60;55.50;;;;;;4890346;29;20513;-70
2022/09/16 07:32:07;;;;;;;1.70;1.13;;;18.60;55.60;;;;;;4895404;29;20470;-70
2022/09/16 07:34:37;;;;;;;3.30;1.00;;;18.60;55.60;;;;;;4897467;29;20473;-70
2022/09/16 07:37:06;;;;;;;2.40;0.63;;;18.60;55.60;;;;;;4903015;29;20470;-69
2022/09/16 07:39:34;;;;;;;2.97;1.13;;;18.60;55.60;;;;;;4897223;29;20981;-70
2022/09/16 07:42:03;;;;;;;2.13;1.27;;;18.60;55.60;;;;;;4876418;29;20625;-70
2022/09/16 07:44:33;;;;;;;2.50;0.93;;;18.60;55.60;;;;;;4886753;29;20457;-70
2022/09/16 07:47:02;;;;;;;2.47;0.90;;;18.60;55.50;;;;;;4879057;29;20470;-70
2022/09/16 07:49:30;;;;;;;2.87;1.10;;;18.60;55.60;;;;;;4895475;29;20518;-70
2022/09/16 07:52:00;;;;;;;3.70;0.97;;;18.60;56.10;;;;;;4884668;29;20967;-70
2022/09/16 07:54:28;;;;;;;3.30;1.10;;;18.60;55.70;;;;;;4878713;29;20454;-70
2022/09/16 07:56:57;;;;;;;2.30;0.90;;;18.60;55.80;;;;;;4870380;29;20474;-70
2022/09/16 07:59:26;;;;;;;1.80;1.03;;;18.60;55.80;;;;;;4886912;29;20477;-70
2022/09/16 08:01:54;;;;;;;4.90;1.20;;;18.60;55.80;;;;;;4878689;29;20477;-70
2022/09/16 08:04:23;;;;;;;2.43;1.07;;;18.60;55.80;;;;;;4879280;29;20469;-70
2022/09/16 08:06:51;;;;;;;1.43;1.00;;;18.60;55.80;;;;;;4877501;29;20478;-70
2022/09/16 08:09:21;;;;;;;2.07;1.00;;;18.60;55.80;;;;;;4891704;29;20938;-70
2022/09/16 08:12:11;;;;;;;1.60;0.87;;;18.60;55.70;;;;;;4874936;29;20470;-70
2022/09/16 08:14:39;;;;;;;2.23;1.03;;;18.60;55.80;;;;;;4885883;29;20849;-70
2022/09/16 08:17:08;;;;;;;2.00;1.00;;;18.60;55.80;;;;;;4881980;29;20502;-70
2022/09/16 08:19:38;;;;;;;1.90;0.90;;;18.50;55.60;;;;;;4881263;29;20990;-70
2022/09/16 08:22:06;;;;;;;2.27;1.13;;;18.60;55.80;;;;;;4891107;29;20470;-70
2022/09/16 08:24:36;;;;;;;1.77;0.47;;;18.60;55.80;;;;;;4886523;29;20898;-70
2022/09/16 08:27:04;;;;;;;4.40;1.50;;;18.60;55.70;;;;;;4882738;29;20513;-70
2022/09/16 08:29:33;;;;;;;3.63;0.80;;;18.50;55.50;;;;;;4881796;29;20521;-70
2022/09/16 08:32:01;;;;;;;3.30;0.93;;;18.50;55.70;;;;;;4878131;29;20486;-70
2022/09/16 08:34:30;;;;;;;2.77;1.07;;;18.60;55.80;;;;;;4972601;23;20499;-68
2022/09/16 08:36:58;;;;;;;5.97;1.00;;;18.60;55.70;;;;;;4889381;29;20702;-68
2022/09/16 08:39:27;;;;;;;1.50;0.80;;;18.50;55.40;;;;;;4884451;29;20466;-68
2022/09/16 08:42:12;;;;;;;3.10;0.90;;;18.50;55.60;;;;;;4874790;29;20536;-68
2022/09/16 08:44:50;;;;;;;2.27;0.90;;;18.50;55.40;;;;;;4901950;29;20517;-69
2022/09/16 08:47:31;;;;;;;1.37;0.77;;;18.50;55.60;;;;;;4893450;29;20489;-69
2022/09/16 08:50:03;;;;;;;1.10;0.70;;;18.50;55.40;;;;;;4885560;29;20776;-69
2022/09/16 08:52:33;;;;;;;1.40;0.83;;;18.50;55.60;;;;;;4878058;29;20548;-67
2022/09/16 08:55:05;;;;;;;1.30;0.70;;;18.50;55.40;;;;;;4890251;29;20596;-68
2022/09/16 08:57:40;;;;;;;1.60;0.80;;;18.50;55.50;;;;;;4885948;29;20489;-69
2022/09/16 09:00:15;;;;;;;2.23;0.93;;;18.50;55.40;;;;;;4877635;29;20524;-69
2022/09/16 09:02:51;;;;;;;2.43;1.10;;;18.50;55.50;;;;;;4881246;29;20805;-69
2022/09/16 09:05:29;;;;;;;4.43;0.70;;;18.50;55.50;;;;;;4872200;29;20482;-69
2022/09/16 09:08:10;;;;;;;1.60;0.77;;;18.50;55.40;;;;;;4877546;29;20541;-68
2022/09/16 09:10:46;;;;;;;1.33;0.70;;;18.50;55.60;;;;;;4882121;29;20434;-68
2022/09/16 09:13:29;;;;;;;1.53;0.70;;;18.50;55.60;;;;;;4889285;29;20468;-68
2022/09/16 09:16:05;;;;;;;1.80;0.83;;;18.50;55.60;;;;;;4907927;29;20912;-68
2022/09/16 09:18:39;;;;;;;1.87;1.00;;;18.50;55.40;;;;;;4880384;29;20466;-68
2022/09/16 09:21:21;;;;;;;5.07;0.80;;;18.50;55.60;;;;;;4883680;29;20466;-68
2022/09/16 09:24:21;;;;;;;1.83;0.70;;;18.50;55.50;;;;;;4874849;29;20438;-68
2022/09/16 09:26:51;;;;;;;1.30;0.70;;;18.50;55.40;;;;;;4843091;29;20482;-68
2022/09/16 09:29:53;;;;;;;1.73;0.77;;;18.50;55.40;;;;;;4890041;29;20569;-69
2022/09/16 09:32:33;;;;;;;3.80;0.80;;;18.50;55.50;;;;;;4900206;29;20457;-69
2022/09/16 09:35:28;;;;;;;2.40;0.80;;;18.50;55.50;;;;;;4876082;29;20478;-66
2022/09/16 09:38:28;;;;;;;3.40;0.83;;;18.50;55.20;;;;;;4885288;29;20435;-68
2022/09/16 09:41:02;;;;;;;1.37;0.70;;;18.50;55.30;;;;;;4866345;29;20678;-68
2022/09/16 09:43:36;;;;;;;0.90;0.63;;;18.50;55.50;;;;;;4890096;29;20452;-68
2022/09/16 09:46:12;;;;;;;1.97;0.87;;;18.50;55.40;;;;;;4879713;29;20828;-68
2022/09/16 09:48:46;;;;;;;0.93;0.53;;;18.50;55.40;;;;;;4884876;29;20478;-68
2022/09/16 09:51:21;;;;;;;1.50;1.40;;;18.50;55.40;;;;;;4867659;29;20477;-67
2022/09/16 09:53:53;;;;;;;1.87;0.87;;;18.50;55.50;;;;;;4884601;29;20540;-69
2022/09/16 09:56:26;;;;;;;1.20;0.73;;;18.50;55.40;;;;;;4879935;29;20551;-68
2022/09/16 09:59:01;;;;;;;2.60;1.30;;;18.50;55.40;;;;;;4890473;29;21003;-68
2022/09/16 10:01:31;;;;;;;1.73;0.73;;;18.50;55.50;;;;;;4875857;29;20919;-68
2022/09/16 10:03:59;;;;;;;1.10;0.53;;;18.50;55.40;;;;;;4876254;29;20827;-68
2022/09/16 10:06:33;;;;;;;3.77;0.90;;;18.50;55.50;;;;;;4868798;29;20574;-68
2022/09/16 10:09:01;;;;;;;1.00;0.90;;;18.50;55.50;;;;;;4861100;29;20522;-67
2022/09/16 10:11:33;;;;;;;1.33;0.60;;;18.50;55.40;;;;;;4869113;29;20574;-67
2022/09/16 10:14:04;;;;;;;1.47;0.60;;;18.50;55.40;;;;;;4883699;29;20533;-68
2022/09/16 10:16:36;;;;;;;0.60;0.50;;;18.50;55.20;;;;;;4885752;29;21003;-66
2022/09/16 10:19:08;;;;;;;1.73;0.67;;;18.50;55.20;;;;;;4876489;29;20447;-68
2022/09/16 10:21:44;;;;;;;0.90;0.70;;;18.50;55.30;;;;;;4898048;29;20541;-68
2022/09/16 10:24:29;;;;;;;1.27;0.63;;;18.50;55.10;;;;;;4879344;29;20434;-68
2022/09/16 10:26:58;;;;;;;1.50;0.77;;;18.50;55.10;;;;;;4868575;29;20516;-68
2022/09/16 10:29:27;;;;;;;2.87;1.00;;;18.50;55.20;;;;;;4857833;29;20951;-69
2022/09/16 10:32:02;;;;;;;3.40;0.80;;;18.50;55.10;;;;;;4892811;29;20522;-74
2022/09/16 10:34:34;;;;;;;2.53;0.90;;;18.50;56.20;;;;;;4869777;29;20598;-74
2022/09/16 10:37:05;;;;;;;1.63;0.70;;;18.50;55.20;;;;;;4883336;29;20896;-72
2022/09/16 10:39:34;;;;;;;2.80;1.03;;;18.50;55.10;;;;;;4891634;29;20880;-73
2022/09/16 10:42:03;;;;;;;1.20;0.60;;;18.50;55.20;;;;;;4871470;29;20484;-73
2022/09/16 10:44:33;;;;;;;1.93;0.50;;;18.50;55.10;;;;;;4893289;29;20506;-73
2022/09/16 10:47:08;;;;;;;2.63;0.90;;;18.50;55.20;;;;;;4891220;29;20509;-73
2022/09/16 10:49:40;;;;;;;2.07;0.53;;;18.50;55.30;;;;;;4889858;29;20588;-73
2022/09/16 10:52:20;;;;;;;1.00;0.60;;;18.50;55.20;;;;;;4894855;29;20847;-73
2022/09/16 10:54:49;;;;;;;2.00;0.73;;;18.50;55.10;;;;;;4875861;29;20462;-73
2022/09/16 10:57:27;;;;;;;1.00;0.70;;;18.50;55.20;;;;;;4868293;29;20453;-73
2022/09/16 11:00:11;;;;;;;1.87;0.90;;;18.50;54.90;;;;;;4899366;29;20450;-73
2022/09/16 11:03:27;;;;;;;2.10;0.73;;;18.50;54.90;;;;;;4883627;29;20438;-72
2022/09/16 11:06:11;;;;;;;1.87;1.10;;;18.50;55.10;;;;;;4873931;29;20476;-72
2022/09/16 11:08:53;;;;;;;1.23;0.57;;;18.50;55.10;;;;;;4871153;29;20478;-73
2022/09/16 11:11:43;;;;;;;1.77;0.77;;;18.50;55.10;;;;;;4884654;29;20466;-72
2022/09/16 11:14:17;;;;;;;1.77;0.77;;;18.50;55.20;;;;;;4875603;29;20800;-73
2022/09/16 11:17:05;;;;;;;1.20;0.70;;;18.50;55.40;;;;;;4883262;29;20482;-74
2022/09/16 11:19:43;;;;;;;3.47;0.97;;;18.50;55.10;;;;;;4883834;29;20524;-72
2022/09/16 11:22:23;;;;;;;2.00;0.60;;;18.50;55.10;;;;;;4885805;29;20585;-74
2022/09/16 11:25:27;;;;;;;1.70;0.80;;;18.50;55.10;;;;;;4869269;29;20893;-73
2022/09/16 11:28:05;;;;;;;1.47;0.90;;;18.50;55.10;;;;;;4875116;29;20505;-74
2022/09/16 11:30:40;;;;;;;1.53;0.50;;;18.50;54.80;;;;;;4859950;29;20561;-73
2022/09/16 11:33:21;;;;;;;1.53;0.60;;;18.50;55.00;;;;;;4894410;29;20429;-73
2022/09/16 11:36:21;;;;;;;1.23;0.60;;;18.50;55.40;;;;;;4892422;29;20474;-73
2022/09/16 11:39:03;;;;;;;2.20;0.80;;;18.50;55.80;;;;;;4876208;29;20593;-74
2022/09/16 11:41:36;;;;;;;4.60;0.70;;;18.50;56.00;;;;;;4883362;29;20518;-74
2022/09/16 11:44:26;;;;;;;2.20;0.90;;;18.50;56.20;;;;;;4880502;29;20766;-73
2022/09/16 11:47:08;;;;;;;2.50;0.60;;;18.50;56.40;;;;;;4888197;29;21053;-74
2022/09/16 11:49:55;;;;;;;1.43;0.70;;;18.40;56.60;;;;;;4894164;29;21000;-74
2022/09/16 11:52:40;;;;;;;1.77;0.77;;;18.40;56.60;;;;;;4889493;29;20867;-74
2022/09/16 11:55:22;;;;;;;1.70;0.80;;;18.40;56.80;;;;;;4878793;29;20457;-73
2022/09/16 11:57:55;;;;;;;1.10;0.70;;;18.40;56.90;;;;;;4888162;29;20537;-74
2022/09/16 12:00:23;;;;;;;2.70;0.60;;;18.40;56.90;;;;;;4889126;29;20666;-74
2022/09/16 12:03:00;;;;;;;1.53;0.80;;;18.40;57.10;;;;;;4892853;29;20435;-73
2022/09/16 12:05:33;;;;;;;1.80;0.80;;;18.40;56.90;;;;;;4895970;29;20462;-74
2022/09/16 12:08:10;;;;;;;1.63;0.90;;;18.40;56.90;;;;;;4884174;29;20482;-72
2022/09/16 12:10:45;;;;;;;0.83;0.50;;;18.40;57.00;;;;;;4878062;29;20461;-72
2022/09/16 12:13:18;;;;;;;1.07;0.60;;;18.40;56.80;;;;;;4878769;29;20955;-74
2022/09/16 12:15:50;;;;;;;0.80;0.70;;;18.40;57.00;;;;;;4888416;29;20501;-72
2022/09/16 12:18:24;;;;;;;2.00;0.80;;;18.40;57.10;;;;;;4886156;29;20818;-73
2022/09/16 12:20:57;;;;;;;0.87;0.50;;;18.40;57.20;;;;;;4887028;29;20481;-74
2022/09/16 12:23:29;;;;;;;2.23;0.70;;;18.40;57.20;;;;;;4880143;29;20442;-74
2022/09/16 12:26:08;;;;;;;0.70;0.50;;;18.40;57.30;;;;;;4876932;29;20969;-74
2022/09/16 12:28:42;;;;;;;1.20;0.70;;;18.40;57.30;;;;;;4890336;29;20450;-73
2022/09/16 12:31:15;;;;;;;2.80;0.70;;;18.40;57.60;;;;;;4875216;29;20509;-74
2022/09/16 12:33:52;;;;;;;1.60;0.77;;;18.40;58.80;;;;;;4873394;29;21017;-73
2022/09/16 12:36:25;;;;;;;1.30;0.70;;;18.40;59.00;;;;;;4876752;29;20481;-73
2022/09/16 12:38:53;;;;;;;0.83;0.60;;;18.40;58.60;;;;;;4876443;29;20795;-73
2022/09/16 12:41:46;;;;;;;1.20;0.80;;;18.40;58.80;;;;;;4859324;29;20563;-72
2022/09/16 12:44:35;;;;;;;1.33;0.90;;;18.40;58.80;;;;;;4886039;29;20529;-68
2022/09/16 12:47:24;;;;;;;0.83;0.60;;;18.40;58.50;;;;;;4881352;29;20483;-65
2022/09/16 12:50:18;;;;;;;1.77;1.37;;;18.40;58.30;;;;;;4885321;29;21328;-69
2022/09/16 12:53:22;;;;;;;0.70;0.50;;;18.40;58.10;;;;;;4874789;29;20446;-68
2022/09/16 12:56:02;;;;;;;0.70;0.60;;;18.40;58.10;;;;;;4860531;29;20486;-68
2022/09/16 12:58:59;;;;;;;2.50;1.20;;;18.40;58.20;;;;;;4886046;29;20756;-67
2022/09/16 13:01:35;;;;;;;1.17;1.07;;;18.40;58.00;;;;;;4888072;29;20586;-66
2022/09/16 13:04:11;;;;;;;2.03;0.90;;;18.40;58.00;;;;;;4889577;29;20954;-68
2022/09/16 13:06:46;;;;;;;1.50;0.43;;;18.40;58.00;;;;;;4888602;29;20565;-67
2022/09/16 13:09:22;;;;;;;1.17;0.60;;;18.40;58.00;;;;;;4875932;29;20611;-68
2022/09/16 13:11:56;;;;;;;1.80;0.67;;;18.40;58.10;;;;;;4865091;29;20478;-68
2022/09/16 13:14:49;;;;;;;1.40;0.70;;;18.40;58.00;;;;;;4876226;29;20462;-68
2022/09/16 13:17:30;;;;;;;1.00;0.60;;;18.40;57.90;;;;;;4895907;29;20486;-66
2022/09/16 13:20:06;;;;;;;1.10;0.90;;;18.40;57.90;;;;;;4875572;29;20459;-67
2022/09/16 13:22:48;;;;;;;1.67;0.70;;;18.40;57.90;;;;;;4893631;29;20476;-68
2022/09/16 13:25:23;;;;;;;1.23;0.70;;;18.40;57.90;;;;;;4859127;29;20466;-66